Time;durP1;ratioP1;P1;durP2;ratioP2;P2;SDS_P1;SDS_P2;PMS_P1;PMS_P2;Temp;Humidity;BMP_temperature;BMP_pressure;BME280_temperature;BME280_humidity;BME280_pressure;Samples;Min_cycle;Max_cycle;Signal;HPM_P1;HPM_P2
2023/08/29 00:02:08;;;;;;;5.55;2.78;;;;;;;15.42;76.71;101299.16;7389264;19;20018;-69
2023/08/29 00:04:36;;;;;;;3.78;2.60;;;;;;;15.41;76.62;101292.09;7390418;19;20035;-69
2023/08/29 00:07:03;;;;;;;5.35;3.10;;;;;;;15.33;77.00;101282.94;7392229;19;20018;-70
2023/08/29 00:09:31;;;;;;;5.05;2.85;;;;;;;15.30;77.29;101285.88;7390007;19;20033;-69
2023/08/29 00:12:00;;;;;;;5.53;3.00;;;;;;;15.26;77.31;101286.25;7387771;19;20484;-70
2023/08/29 00:14:28;;;;;;;5.13;2.97;;;;;;;15.23;77.42;101284.72;7391627;19;20033;-70
2023/08/29 00:16:55;;;;;;;6.43;3.65;;;;;;;15.37;77.38;101286.19;7391136;19;20379;-69
2023/08/29 00:19:23;;;;;;;7.68;3.95;;;;;;;15.54;76.40;101285.59;7391364;19;20023;-69
2023/08/29 00:21:51;;;;;;;6.93;3.88;;;;;;;15.57;76.31;101285.34;7388622;19;20025;-69
2023/08/29 00:24:18;;;;;;;8.05;4.00;;;;;;;15.70;75.42;101278.97;7391489;19;20069;-70
2023/08/29 00:26:46;;;;;;;8.85;3.65;;;;;;;15.70;75.34;101276.28;7391036;19;20042;-70
2023/08/29 00:29:13;;;;;;;6.03;3.58;;;;;;;15.63;75.38;101262.59;7390069;19;20021;-70
2023/08/29 00:31:40;;;;;;;7.82;3.88;;;;;;;15.64;75.36;101260.75;7387738;19;20499;-69
2023/08/29 00:34:08;;;;;;;7.13;4.30;;;;;;;15.52;75.54;101258.16;7391218;19;20462;-69
2023/08/29 00:36:35;;;;;;;8.52;4.50;;;;;;;15.24;76.81;101265.03;7389832;19;20030;-69
2023/08/29 00:39:03;;;;;;;6.05;3.65;;;;;;;15.13;77.35;101262.44;7391185;19;20019;-69
2023/08/29 00:41:31;;;;;;;8.02;4.10;;;;;;;15.04;77.99;101264.06;7389192;19;20014;-68
2023/08/29 00:43:58;;;;;;;7.18;4.20;;;;;;;15.10;77.62;101258.19;7390151;19;20015;-68
2023/08/29 00:46:26;;;;;;;8.82;4.35;;;;;;;15.22;77.40;101252.81;7390366;19;20019;-69
2023/08/29 00:48:55;;;;;;;6.55;4.32;;;;;;;15.42;76.41;101248.44;7390563;19;20493;-69
2023/08/29 00:51:22;;;;;;;6.88;4.13;;;;;;;15.52;75.83;101241.31;7395650;19;20386;-69
2023/08/29 00:53:49;;;;;;;8.20;4.50;;;;;;;15.39;76.16;101246.88;7397176;19;20031;-69
2023/08/29 00:56:17;;;;;;;7.47;4.20;;;;;;;15.22;76.80;101240.31;7397554;19;20038;-69
2023/08/29 00:58:45;;;;;;;7.47;3.80;;;;;;;15.10;77.07;101241.34;7396791;19;20355;-69
2023/08/29 01:01:14;;;;;;;7.30;4.38;;;;;;;15.03;77.64;101240.19;7395623;19;20011;-69
2023/08/29 01:03:42;;;;;;;7.07;4.25;;;;;;;15.28;76.49;101246.97;7397131;19;20028;-69
2023/08/29 01:06:11;;;;;;;6.95;4.10;;;;;;;15.40;75.38;101237.88;7397448;19;20026;-69
2023/08/29 01:08:39;;;;;;;8.48;3.67;;;;;;;15.46;75.23;101247.22;7396014;19;20404;-68
2023/08/29 01:11:37;;;;;;;5.68;3.28;;;;;;;15.56;74.15;101248.91;7395803;19;20026;-68
2023/08/29 01:14:18;;;;;;;6.60;3.67;;;;;;;15.41;74.89;101239.56;7396921;19;20062;-68
2023/08/29 01:16:56;;;;;;;5.32;3.13;;;;;;;15.41;74.52;101244.91;7395649;19;20051;-69
2023/08/29 01:19:24;;;;;;;5.95;3.25;;;;;;;15.34;74.80;101233.94;7395519;19;20027;-69
2023/08/29 01:22:07;;;;;;;6.88;3.72;;;;;;;15.20;75.38;101234.28;7394029;19;20571;-69
2023/08/29 01:24:46;;;;;;;6.30;4.30;;;;;;;14.89;77.07;101236.03;7395694;19;20026;-69
2023/08/29 01:27:14;;;;;;;6.78;4.00;;;;;;;15.10;76.48;101225.34;7397158;19;20010;-69
2023/08/29 01:29:46;;;;;;;7.18;4.35;;;;;;;15.23;75.52;101223.34;7395469;19;20558;-69
2023/08/29 01:32:15;;;;;;;7.43;4.00;;;;;;;15.24;75.40;101238.38;7393983;19;20026;-69
2023/08/29 01:34:44;;;;;;;7.80;3.20;;;;;;;15.34;74.70;101241.94;7394899;19;20018;-69
2023/08/29 01:37:11;;;;;;;8.60;4.07;;;;;;;15.26;74.25;101241.75;7393462;19;20027;-69
2023/08/29 01:39:38;;;;;;;6.22;4.05;;;;;;;14.96;75.71;101252.38;7396990;19;20086;-69
2023/08/29 01:42:06;;;;;;;7.60;4.00;;;;;;;14.78;76.26;101260.94;7393534;19;20032;-68
2023/08/29 01:44:34;;;;;;;8.48;4.53;;;;;;;14.72;76.57;101272.09;7394589;19;20086;-69
2023/08/29 01:47:01;;;;;;;8.48;4.15;;;;;;;14.90;76.26;101282.22;7396055;19;20026;-69
2023/08/29 01:49:32;;;;;;;8.23;4.15;;;;;;;15.11;75.31;101291.09;7395855;19;20015;-69
2023/08/29 01:52:00;;;;;;;6.38;3.50;;;;;;;15.17;74.84;101289.72;7393534;19;20385;-69
2023/08/29 01:54:28;;;;;;;6.15;3.45;;;;;;;15.14;74.70;101293.47;7394499;19;20483;-69
2023/08/29 01:56:58;;;;;;;7.88;4.45;;;;;;;15.00;74.91;101313.31;7396166;19;20042;-69
2023/08/29 01:59:27;;;;;;;8.50;4.38;;;;;;;14.71;76.21;101313.06;7396115;19;20010;-68
2023/08/29 02:01:54;;;;;;;6.93;3.67;;;;;;;14.51;76.99;101314.69;7389429;19;20022;-68
2023/08/29 02:04:22;;;;;;;6.80;3.78;;;;;;;14.52;77.07;101308.38;7395347;19;20551;-68
2023/08/29 02:06:49;;;;;;;6.82;3.70;;;;;;;14.54;76.82;101303.78;7395754;19;20019;-68
2023/08/29 02:09:17;;;;;;;8.40;3.85;;;;;;;14.52;77.20;101304.88;7395488;19;20031;-68
2023/08/29 02:11:44;;;;;;;6.25;4.07;;;;;;;14.57;77.01;101306.19;7392934;19;20025;-68
2023/08/29 02:14:12;;;;;;;6.88;4.07;;;;;;;14.69;76.67;101312.34;7395554;19;20019;-68
2023/08/29 02:16:39;;;;;;;8.50;4.22;;;;;;;14.62;77.15;101322.66;7393448;19;20593;-68
2023/08/29 02:19:07;;;;;;;7.65;4.05;;;;;;;14.90;76.30;101331.06;7393646;19;20086;-69
2023/08/29 02:21:34;;;;;;;7.90;4.50;;;;;;;14.97;75.65;101334.91;7395428;19;20033;-70
2023/08/29 02:24:02;;;;;;;7.28;4.55;;;;;;;15.00;75.03;101321.31;7394474;19;20390;-70
2023/08/29 02:26:30;;;;;;;7.85;4.30;;;;;;;14.99;75.18;101326.78;7393857;19;20030;-61
2023/08/29 02:28:57;;;;;;;8.52;4.40;;;;;;;15.00;75.04;101318.66;7395160;19;20112;-60
2023/08/29 02:31:25;;;;;;;8.30;4.82;;;;;;;15.06;74.76;101314.63;7393448;19;20015;-61
2023/08/29 02:33:53;;;;;;;7.05;4.18;;;;;;;14.68;76.00;101313.31;7392855;19;20505;-61
2023/08/29 02:36:21;;;;;;;7.30;4.57;;;;;;;14.55;76.54;101308.13;7393104;19;20015;-61
2023/08/29 02:38:49;;;;;;;6.53;4.40;;;;;;;14.66;76.65;101311.75;7392464;19;20491;-61
2023/08/29 02:41:17;;;;;;;8.35;5.00;;;;;;;14.79;76.11;101315.09;7391401;19;20015;-61
2023/08/29 02:43:44;;;;;;;9.63;5.47;;;;;;;14.48;77.36;101314.91;7391713;19;20036;-61
2023/08/29 02:46:12;;;;;;;7.50;4.88;;;;;;;14.68;76.56;101315.97;7394195;19;20039;-60
2023/08/29 02:48:39;;;;;;;8.70;5.35;;;;;;;14.74;75.87;101318.16;7394077;19;20014;-60
2023/08/29 02:51:06;;;;;;;10.02;6.15;;;;;;;14.55;76.72;101324.13;7391049;19;20030;-62
2023/08/29 02:53:34;;;;;;;8.10;4.80;;;;;;;14.64;76.63;101317.19;7392847;19;20500;-62
2023/08/29 02:56:01;;;;;;;8.25;4.70;;;;;;;14.74;76.07;101310.16;7393819;19;20353;-62
2023/08/29 02:58:30;;;;;;;8.80;5.13;;;;;;;14.81;75.74;101310.50;7393615;19;20015;-62
2023/08/29 03:00:57;;;;;;;7.40;4.65;;;;;;;14.89;75.27;101301.84;7392283;19;20370;-62
2023/08/29 03:03:25;;;;;;;7.30;4.47;;;;;;;14.89;75.12;101302.69;7391666;19;20415;-61
2023/08/29 03:05:57;;;;;;;6.95;4.45;;;;;;;14.89;74.85;101297.38;7393736;19;20027;-61
2023/08/29 03:08:25;;;;;;;8.30;4.60;;;;;;;14.90;74.91;101304.38;7393228;19;20355;-61
2023/08/29 03:10:53;;;;;;;8.25;4.93;;;;;;;14.75;75.11;101295.00;7392554;19;20027;-61
2023/08/29 03:13:21;;;;;;;7.90;4.97;;;;;;;14.49;76.47;101295.31;7391686;19;20014;-61
2023/08/29 03:15:48;;;;;;;8.57;5.03;;;;;;;14.50;76.67;101290.81;7393446;19;20014;-61
2023/08/29 03:18:16;;;;;;;8.07;4.88;;;;;;;14.69;75.87;101293.69;7393891;19;20047;-61
2023/08/29 03:20:44;;;;;;;8.20;4.90;;;;;;;14.69;75.44;101292.81;7394355;19;20018;-62
2023/08/29 03:23:11;;;;;;;8.73;5.53;;;;;;;14.37;76.70;101297.13;7394428;19;20019;-62
2023/08/29 03:25:39;;;;;;;7.45;4.50;;;;;;;14.57;76.03;101302.66;7397462;19;20014;-61
2023/08/29 03:28:06;;;;;;;7.75;4.43;;;;;;;14.68;75.18;101299.97;7393740;19;20010;-62
2023/08/29 03:30:34;;;;;;;7.20;4.05;;;;;;;14.72;75.11;101289.91;7394579;19;20022;-62
2023/08/29 03:33:02;;;;;;;8.73;4.72;;;;;;;14.71;75.09;101281.06;7393850;19;20026;-62
2023/08/29 03:35:30;;;;;;;7.95;4.60;;;;;;;14.67;75.00;101284.97;7394316;19;20086;-61
2023/08/29 03:37:57;;;;;;;8.80;4.90;;;;;;;14.49;75.55;101279.31;7393925;19;20636;-61
2023/08/29 03:40:25;;;;;;;10.30;5.63;;;;;;;14.24;76.65;101276.94;7393815;19;20472;-59
2023/08/29 03:42:55;;;;;;;8.82;5.57;;;;;;;14.17;76.96;101276.56;7389879;19;20014;-61
2023/08/29 03:45:22;;;;;;;9.10;5.43;;;;;;;14.05;77.43;101280.22;7392493;19;20022;-61
2023/08/29 03:47:49;;;;;;;8.60;5.60;;;;;;;14.10;77.41;101284.19;7392575;19;20039;-60
2023/08/29 03:50:19;;;;;;;8.55;5.57;;;;;;;14.16;77.61;101277.56;7391198;19;20042;-61
2023/08/29 03:52:48;;;;;;;9.20;5.63;;;;;;;14.30;77.39;101282.59;7391525;19;20032;-61
2023/08/29 03:55:15;;;;;;;8.27;5.53;;;;;;;14.41;77.15;101278.22;7391734;19;20010;-61
2023/08/29 03:57:43;;;;;;;8.30;5.32;;;;;;;14.60;76.61;101286.44;7391047;19;20348;-61
2023/08/29 04:00:11;;;;;;;8.43;5.50;;;;;;;14.71;76.11;101282.88;7388035;19;20017;-61
2023/08/29 04:02:39;;;;;;;11.73;5.93;;;;;;;14.74;75.91;101283.47;7388524;19;20426;-62
2023/08/29 04:05:14;;;;;;;7.70;5.47;;;;;;;14.78;75.50;101279.59;7390805;19;20032;-61
2023/08/29 04:07:42;;;;;;;9.60;5.95;;;;;;;14.49;76.36;101284.66;7386719;19;20022;-61
2023/08/29 04:10:12;;;;;;;8.30;5.50;;;;;;;14.67;75.88;101290.28;7389728;19;20026;-61
2023/08/29 04:12:39;;;;;;;10.32;5.55;;;;;;;14.57;76.04;101284.00;7390815;19;20066;-61
2023/08/29 04:15:07;;;;;;;8.52;5.10;;;;;;;14.43;76.49;101273.63;7390688;19;20047;-61
2023/08/29 04:17:34;;;;;;;10.93;6.55;;;;;;;14.52;77.10;101280.88;7392271;19;20015;-62
2023/08/29 04:20:08;;;;;;;9.65;6.18;;;;;;;14.57;77.35;101278.69;7391200;19;20377;-61
2023/08/29 04:22:35;;;;;;;8.65;5.18;;;;;;;14.56;77.27;101263.66;7390058;19;20027;-61
2023/08/29 04:25:04;;;;;;;9.23;5.57;;;;;;;14.67;76.79;101254.78;7394510;19;20041;-61
2023/08/29 04:27:31;;;;;;;9.00;5.85;;;;;;;14.72;76.73;101255.25;7399303;19;20525;-61
2023/08/29 04:29:59;;;;;;;13.43;6.00;;;;;;;14.68;76.94;101251.16;7398305;19;20386;-61
2023/08/29 04:32:26;;;;;;;11.15;5.80;;;;;;;14.64;77.02;101253.22;7398112;19;20014;-60
2023/08/29 04:34:54;;;;;;;8.85;5.88;;;;;;;14.64;77.25;101245.22;7399234;19;20055;-61
2023/08/29 04:37:21;;;;;;;8.25;5.68;;;;;;;14.77;76.68;101245.91;7396616;19;20017;-61
2023/08/29 04:39:49;;;;;;;10.88;7.00;;;;;;;14.56;77.62;101248.53;7397557;19;20228;-61
2023/08/29 04:42:16;;;;;;;9.27;5.90;;;;;;;14.68;77.30;101251.16;7393978;19;20014;-61
2023/08/29 04:44:44;;;;;;;9.65;6.13;;;;;;;14.88;76.58;101239.66;7397935;19;20022;-61
2023/08/29 04:47:14;;;;;;;9.73;6.35;;;;;;;14.72;76.59;101232.09;7398128;19;20022;-61
2023/08/29 04:49:41;;;;;;;10.07;6.85;;;;;;;14.66;77.36;101229.97;7398127;19;20358;-60
2023/08/29 04:52:08;;;;;;;10.10;6.45;;;;;;;14.79;76.80;101227.09;7392177;19;20093;-61
2023/08/29 04:54:36;;;;;;;11.48;6.18;;;;;;;14.74;77.05;101226.66;7397237;19;20015;-61
2023/08/29 04:57:04;;;;;;;9.95;6.85;;;;;;;14.82;76.75;101233.03;7397332;19;20007;-61
2023/08/29 04:59:31;;;;;;;10.00;6.35;;;;;;;14.86;76.54;101238.94;7397423;19;20495;-61
2023/08/29 05:01:58;;;;;;;10.23;6.28;;;;;;;14.86;76.37;101236.28;7393561;19;20032;-62
2023/08/29 05:04:26;;;;;;;11.07;6.57;;;;;;;14.57;77.50;101228.88;7394957;19;20018;-61
2023/08/29 05:06:53;;;;;;;9.25;6.35;;;;;;;14.77;77.15;101226.41;7396344;19;20043;-61
2023/08/29 05:09:21;;;;;;;9.40;6.30;;;;;;;14.90;76.42;101231.53;7396565;19;20014;-62
2023/08/29 05:11:48;;;;;;;11.02;6.57;;;;;;;14.96;75.75;101223.03;7394199;19;20019;-61
2023/08/29 05:14:16;;;;;;;10.05;6.03;;;;;;;14.98;75.64;101224.56;7398094;19;20465;-61
2023/08/29 05:16:43;;;;;;;9.85;6.57;;;;;;;14.81;76.40;101215.34;7396564;19;20026;-61
2023/08/29 05:19:11;;;;;;;10.35;6.85;;;;;;;14.92;76.36;101224.25;7397043;19;20018;-60
2023/08/29 05:21:38;;;;;;;10.75;6.47;;;;;;;14.97;76.14;101224.72;7394393;19;20019;-61
2023/08/29 05:24:06;;;;;;;9.35;6.15;;;;;;;14.99;76.16;101222.75;7395119;19;20090;-61
2023/08/29 05:26:33;;;;;;;9.70;6.90;;;;;;;15.00;76.42;101214.63;7396923;19;20044;-61
2023/08/29 05:29:00;;;;;;;11.10;7.32;;;;;;;14.74;77.32;101213.31;7396320;19;20078;-62
2023/08/29 05:31:29;;;;;;;11.98;7.63;;;;;;;14.69;78.22;101212.84;7394806;19;20401;-61
2023/08/29 05:33:57;;;;;;;10.90;7.97;;;;;;;14.91;77.37;101211.88;7396134;19;20027;-61
2023/08/29 05:36:24;;;;;;;12.57;7.80;;;;;;;14.95;77.72;101208.81;7392127;19;20044;-61
2023/08/29 05:38:51;;;;;;;15.50;7.72;;;;;;;15.04;77.29;101202.72;7397264;19;20039;-60
2023/08/29 05:41:19;;;;;;;12.85;7.05;;;;;;;15.10;76.95;101204.00;7394586;19;20514;-61
2023/08/29 05:43:46;;;;;;;13.82;7.47;;;;;;;15.23;76.51;101211.81;7394424;19;20372;-61
2023/08/29 05:46:14;;;;;;;13.32;7.00;;;;;;;15.09;76.79;101202.31;7392012;19;20078;-61
2023/08/29 05:48:41;;;;;;;14.40;8.27;;;;;;;14.89;77.84;101212.03;7393856;19;20026;-61
2023/08/29 05:51:09;;;;;;;11.80;7.32;;;;;;;14.83;78.52;101220.53;7393069;19;20025;-61
2023/08/29 05:53:36;;;;;;;15.27;8.43;;;;;;;15.07;77.84;101206.94;7392962;19;20026;-61
2023/08/29 05:56:04;;;;;;;18.27;8.70;;;;;;;15.29;77.30;101213.94;7394471;19;20018;-61
2023/08/29 05:58:31;;;;;;;16.23;8.32;;;;;;;15.38;77.21;101214.97;7394832;19;20026;-61
2023/08/29 06:00:59;;;;;;;15.68;8.93;;;;;;;15.43;77.14;101213.59;7394305;19;20521;-61
2023/08/29 06:03:27;;;;;;;15.23;7.85;;;;;;;15.49;76.92;101215.75;7394478;19;20018;-61
2023/08/29 06:05:55;;;;;;;14.07;8.85;;;;;;;15.29;77.68;101213.94;7396191;19;20020;-61
2023/08/29 06:08:23;;;;;;;14.77;8.40;;;;;;;15.24;78.12;101203.69;7394208;19;20054;-61
2023/08/29 06:10:51;;;;;;;17.05;9.45;;;;;;;15.23;78.41;101199.31;7392818;19;20015;-60
2023/08/29 06:13:18;;;;;;;18.00;9.68;;;;;;;15.43;78.08;101199.41;7394902;19;20040;-61
2023/08/29 06:15:45;;;;;;;20.48;9.80;;;;;;;15.50;78.14;101192.56;7395654;19;20036;-61
2023/08/29 06:18:13;;;;;;;14.80;8.70;;;;;;;15.58;77.90;101204.25;7394832;19;20040;-62
2023/08/29 06:20:40;;;;;;;14.38;9.15;;;;;;;15.70;77.91;101202.38;7392320;19;20415;-63
2023/08/29 06:23:08;;;;;;;23.08;10.07;;;;;;;15.77;77.74;101208.03;7394387;19;20026;-62
2023/08/29 06:25:35;;;;;;;20.42;10.13;;;;;;;15.88;77.28;101215.94;7395688;19;20018;-61
2023/08/29 06:28:03;;;;;;;19.00;9.40;;;;;;;15.91;77.20;101220.13;7393082;19;20011;-61
2023/08/29 06:30:31;;;;;;;11.85;7.32;;;;;;;15.97;76.82;101215.09;7393239;19;20112;-60
2023/08/29 06:32:59;;;;;;;13.35;6.63;;;;;;;16.01;76.54;101221.84;7393714;19;20026;-60
2023/08/29 06:35:26;;;;;;;12.73;6.97;;;;;;;16.10;75.98;101220.19;7395805;19;20425;-62
2023/08/29 06:37:55;;;;;;;13.18;7.15;;;;;;;16.11;76.10;101218.38;7394269;19;20526;-60
2023/08/29 06:40:23;;;;;;;15.20;6.32;;;;;;;16.11;75.83;101215.72;7394045;19;20040;-61
2023/08/29 06:42:50;;;;;;;13.25;6.07;;;;;;;16.05;75.91;101211.75;7394565;19;20011;-61
2023/08/29 06:45:17;;;;;;;11.95;5.43;;;;;;;16.13;75.33;101219.91;7393714;19;20070;-61
2023/08/29 06:47:45;;;;;;;11.25;5.47;;;;;;;16.11;75.09;101211.19;7395475;19;20350;-62
2023/08/29 06:50:12;;;;;;;9.05;4.90;;;;;;;16.20;74.51;101212.19;7393821;19;20036;-62
2023/08/29 06:52:40;;;;;;;9.38;4.50;;;;;;;16.24;74.19;101200.25;7393552;19;20022;-62
2023/08/29 06:55:09;;;;;;;8.60;4.18;;;;;;;16.30;73.85;101205.88;7394271;19;20492;-62
2023/08/29 06:57:37;;;;;;;12.77;5.00;;;;;;;16.41;73.91;101204.03;7394079;19;20011;-62
2023/08/29 07:00:05;;;;;;;9.98;5.28;;;;;;;16.44;73.56;101206.44;7393334;19;20041;-62
2023/08/29 07:02:32;;;;;;;9.90;4.68;;;;;;;16.45;73.52;101213.50;7392906;19;20374;-61
2023/08/29 07:05:00;;;;;;;8.95;4.82;;;;;;;16.50;73.63;101205.91;7390244;19;20015;-60
2023/08/29 07:07:28;;;;;;;12.57;4.65;;;;;;;16.54;73.06;101215.31;7393684;19;20053;-61
2023/08/29 07:09:56;;;;;;;9.13;4.40;;;;;;;16.56;72.92;101214.22;7393297;19;20492;-60
2023/08/29 07:12:23;;;;;;;8.02;4.28;;;;;;;16.60;73.05;101214.78;7392456;19;20488;-61
2023/08/29 07:14:50;;;;;;;8.43;4.22;;;;;;;16.67;73.03;101215.88;7393522;19;20018;-61
2023/08/29 07:17:18;;;;;;;8.95;4.20;;;;;;;16.70;72.86;101214.75;7393519;19;20022;-60
2023/08/29 07:19:45;;;;;;;9.77;4.65;;;;;;;16.72;72.73;101218.97;7393018;19;20018;-60
2023/08/29 07:22:13;;;;;;;6.70;4.25;;;;;;;16.72;72.28;101215.47;7390734;19;20364;-62
2023/08/29 07:24:51;;;;;;;8.30;4.07;;;;;;;16.77;72.17;101222.09;7392625;19;20017;-63
2023/08/29 07:27:18;;;;;;;6.63;3.88;;;;;;;16.83;72.30;101225.19;7395066;19;20432;-60
2023/08/29 07:29:46;;;;;;;8.32;4.22;;;;;;;16.83;72.22;101226.06;7395252;19;20358;-62
2023/08/29 07:32:14;;;;;;;7.65;4.07;;;;;;;16.84;72.30;101226.91;7392700;19;20019;-63
2023/08/29 07:34:41;;;;;;;6.85;3.47;;;;;;;16.90;71.98;101231.66;7392664;19;20018;-61
2023/08/29 07:37:09;;;;;;;6.50;3.92;;;;;;;16.94;71.82;101231.25;7392954;19;20506;-60
2023/08/29 07:39:37;;;;;;;5.93;3.40;;;;;;;16.97;71.75;101238.97;7392685;19;20026;-60
2023/08/29 07:42:04;;;;;;;5.55;3.40;;;;;;;17.03;71.60;101240.25;7388764;19;20019;-63
2023/08/29 07:44:32;;;;;;;9.02;4.18;;;;;;;17.09;71.27;101236.97;7391078;19;20489;-60
2023/08/29 07:46:59;;;;;;;8.27;3.72;;;;;;;17.08;71.03;101237.97;7391844;19;20496;-61
2023/08/29 07:49:30;;;;;;;6.35;3.60;;;;;;;17.04;71.30;101242.78;7390830;19;20078;-62
2023/08/29 07:51:57;;;;;;;7.72;3.60;;;;;;;17.11;70.85;101243.03;7388072;19;20018;-61
2023/08/29 07:54:25;;;;;;;7.22;3.63;;;;;;;17.23;71.00;101246.41;7390527;19;20480;-61
2023/08/29 07:56:53;;;;;;;7.25;3.80;;;;;;;17.26;71.02;101238.94;7390632;19;20022;-61
2023/08/29 07:59:22;;;;;;;8.35;4.03;;;;;;;17.28;70.57;101244.13;7388596;19;20366;-61
2023/08/29 08:01:49;;;;;;;8.35;3.78;;;;;;;17.30;70.67;101245.69;7388265;19;20018;-61
2023/08/29 08:04:16;;;;;;;9.85;2.97;;;;;;;17.29;70.45;101249.34;7391003;19;20022;-60
2023/08/29 08:06:45;;;;;;;6.78;2.90;;;;;;;17.37;70.24;101247.78;7392181;19;20070;-64
2023/08/29 08:09:14;;;;;;;4.78;2.50;;;;;;;17.47;70.06;101249.44;7391887;19;20031;-64
2023/08/29 08:11:41;;;;;;;6.82;2.47;;;;;;;17.55;69.80;101248.69;7388972;19;20025;-63
2023/08/29 08:14:09;;;;;;;5.18;2.60;;;;;;;17.59;69.38;101252.78;7391374;19;20103;-67
2023/08/29 08:16:39;;;;;;;5.40;2.53;;;;;;;17.62;69.34;101257.84;7391240;19;20025;-71
2023/08/29 08:19:10;;;;;;;9.35;2.40;;;;;;;17.67;69.42;101260.09;7389532;19;20018;-69
2023/08/29 08:21:37;;;;;;;8.43;2.88;;;;;;;17.67;69.94;101252.06;7389779;19;20015;-68
2023/08/29 08:24:07;;;;;;;7.18;2.85;;;;;;;17.69;69.76;101242.88;7390477;19;20427;-68
2023/08/29 08:26:34;;;;;;;6.80;2.78;;;;;;;17.68;69.30;101241.19;7389735;19;20022;-68
2023/08/29 08:29:04;;;;;;;5.55;2.50;;;;;;;17.71;69.54;101240.06;7390737;19;20497;-68
2023/08/29 08:31:34;;;;;;;5.55;2.75;;;;;;;17.80;69.61;101238.34;7387498;19;20015;-68
2023/08/29 08:34:02;;;;;;;5.85;2.63;;;;;;;17.84;69.76;101247.78;7390898;19;20491;-67
2023/08/29 08:36:30;;;;;;;7.82;2.92;;;;;;;17.92;70.19;101242.53;7389400;19;20014;-67
2023/08/29 08:38:58;;;;;;;6.53;2.63;;;;;;;17.95;69.88;101256.47;7390710;19;20476;-68
2023/08/29 08:41:26;;;;;;;5.25;2.53;;;;;;;17.94;69.80;101253.94;7389623;19;20481;-68
2023/08/29 08:43:55;;;;;;;5.97;2.53;;;;;;;17.96;69.82;101255.47;7389899;19;20048;-72
2023/08/29 08:46:23;;;;;;;5.97;2.50;;;;;;;17.95;69.36;101259.16;7389372;19;20018;-69
2023/08/29 08:48:51;;;;;;;5.47;2.90;;;;;;;17.96;69.54;101263.50;7390840;19;20015;-70
2023/08/29 08:51:22;;;;;;;8.77;3.28;;;;;;;17.98;69.81;101258.84;7388282;19;20044;-70
2023/08/29 08:53:50;;;;;;;6.18;2.50;;;;;;;18.10;69.25;101256.81;7390779;19;20015;-70
2023/08/29 08:56:17;;;;;;;5.97;2.00;;;;;;;18.06;69.55;101255.44;7388937;19;20492;-70
2023/08/29 08:58:45;;;;;;;7.45;2.00;;;;;;;18.12;69.90;101257.50;7390657;19;20014;-70
2023/08/29 09:01:13;;;;;;;4.38;1.70;;;;;;;18.16;69.06;101256.22;7389352;19;20363;-70
2023/08/29 09:03:41;;;;;;;5.07;2.10;;;;;;;18.22;68.54;101260.13;7389521;19;20022;-70
2023/08/29 09:06:09;;;;;;;5.50;1.75;;;;;;;18.26;68.56;101250.78;7390718;19;20023;-70
2023/08/29 09:08:40;;;;;;;3.83;1.83;;;;;;;18.29;68.55;101250.50;7390764;19;20034;-70
2023/08/29 09:11:08;;;;;;;5.03;2.00;;;;;;;18.33;68.39;101257.25;7392140;19;20540;-70
2023/08/29 09:13:45;;;;;;;3.85;1.85;;;;;;;18.42;67.79;101259.00;7395876;19;20022;-69
2023/08/29 09:16:14;;;;;;;4.90;1.85;;;;;;;18.43;67.99;101259.84;7395909;19;20018;-70
2023/08/29 09:18:49;;;;;;;5.88;1.70;;;;;;;18.49;67.79;101260.09;7398025;19;20019;-69
2023/08/29 09:21:17;;;;;;;4.53;1.50;;;;;;;18.55;67.49;101264.00;7393730;19;20022;-69
2023/08/29 09:23:45;;;;;;;2.50;1.55;;;;;;;18.63;67.49;101269.47;7395100;19;20454;-69
2023/08/29 09:26:13;;;;;;;5.90;1.90;;;;;;;18.67;66.84;101270.00;7396963;19;20018;-69
2023/08/29 09:28:41;;;;;;;6.97;1.80;;;;;;;18.77;67.25;101264.56;7395336;19;20097;-69
2023/08/29 09:31:10;;;;;;;4.20;1.60;;;;;;;18.77;67.76;101269.94;7395044;19;20448;-70
2023/08/29 09:33:39;;;;;;;6.95;2.15;;;;;;;18.79;67.43;101263.44;7396276;19;20022;-70
2023/08/29 09:36:07;;;;;;;8.00;2.40;;;;;;;18.82;67.15;101271.19;7396386;19;20419;-69
2023/08/29 09:38:35;;;;;;;12.18;4.70;;;;;;;18.80;67.20;101273.16;7394790;19;20480;-69
2023/08/29 09:41:03;;;;;;;9.60;4.30;;;;;;;18.83;67.31;101266.66;7393629;19;20618;-69
2023/08/29 09:43:31;;;;;;;9.32;3.63;;;;;;;18.86;67.25;101266.34;7396423;19;20029;-69
2023/08/29 09:45:59;;;;;;;9.95;4.75;;;;;;;18.85;67.20;101267.31;7394671;19;20023;-69
2023/08/29 09:48:28;;;;;;;10.85;5.20;;;;;;;18.83;67.21;101258.59;7394828;19;20428;-69
2023/08/29 09:50:59;;;;;;;11.90;3.97;;;;;;;18.92;67.04;101266.53;7393298;19;20049;-69
2023/08/29 09:53:28;;;;;;;11.93;5.03;;;;;;;18.98;66.75;101263.25;7395745;19;20019;-69
2023/08/29 09:56:09;;;;;;;11.48;4.80;;;;;;;19.01;66.53;101256.75;7396384;19;20131;-69
2023/08/29 09:58:39;;;;;;;12.43;5.05;;;;;;;18.94;66.51;101251.13;7395638;19;20018;-68
2023/08/29 10:01:10;;;;;;;14.35;4.80;;;;;;;19.03;66.47;101257.41;7393447;19;20099;-69
2023/08/29 10:03:40;;;;;;;10.23;4.15;;;;;;;19.06;67.21;101250.91;7395907;19;20018;-69
2023/08/29 10:06:14;;;;;;;10.90;4.32;;;;;;;19.11;67.35;101252.09;7391840;19;20011;-71
2023/08/29 10:08:50;;;;;;;10.57;4.20;;;;;;;19.12;66.63;101247.59;7394043;19;20014;-72
2023/08/29 10:11:19;;;;;;;10.65;5.07;;;;;;;19.12;66.42;101251.13;7394412;19;20015;-72
2023/08/29 10:13:48;;;;;;;15.05;4.25;;;;;;;19.14;66.27;101242.91;7395608;19;20018;-72
2023/08/29 10:16:16;;;;;;;12.45;4.32;;;;;;;19.20;66.00;101243.13;7394266;19;20014;-70
2023/08/29 10:18:46;;;;;;;10.43;3.88;;;;;;;19.21;65.97;101244.81;7394162;19;20027;-68
2023/08/29 10:21:16;;;;;;;8.57;3.45;;;;;;;19.21;65.64;101238.59;7393837;19;20014;-69
2023/08/29 10:23:44;;;;;;;13.70;3.80;;;;;;;19.21;65.31;101227.84;7393207;19;20023;-72
2023/08/29 10:26:13;;;;;;;14.88;3.88;;;;;;;19.22;65.46;101229.53;7391961;19;20019;-71
2023/08/29 10:28:44;;;;;;;12.15;3.20;;;;;;;19.30;65.10;101229.56;7398478;19;20015;-70
2023/08/29 10:31:12;;;;;;;13.38;4.18;;;;;;;19.30;64.52;101223.38;7392176;19;20513;-71
2023/08/29 10:33:39;;;;;;;12.35;4.03;;;;;;;19.30;64.12;101228.72;7394141;19;20357;-71
2023/08/29 10:36:08;;;;;;;13.15;4.68;;;;;;;19.36;64.28;101228.94;7393106;19;20032;-71
2023/08/29 10:38:39;;;;;;;16.10;5.72;;;;;;;19.43;63.92;101230.00;7394725;19;20014;-70
2023/08/29 10:41:07;;;;;;;17.63;5.65;;;;;;;19.40;63.59;101222.25;7393448;19;20102;-70
2023/08/29 10:43:35;;;;;;;15.20;4.80;;;;;;;19.39;62.91;101223.25;7392518;19;20040;-70
2023/08/29 10:46:13;;;;;;;14.90;4.55;;;;;;;19.43;62.66;101223.78;7391337;19;20022;-69
2023/08/29 10:48:44;;;;;;;15.77;5.30;;;;;;;19.41;62.89;101218.56;7392769;19;20508;-69
2023/08/29 10:51:26;;;;;;;17.55;5.25;;;;;;;19.45;62.52;101213.72;7392428;19;20018;-69
2023/08/29 10:54:05;;;;;;;17.33;5.10;;;;;;;19.45;61.93;101211.03;7393528;19;20031;-70
2023/08/29 10:56:42;;;;;;;18.42;4.80;;;;;;;19.46;61.46;101207.38;7392989;19;20029;-70
2023/08/29 10:59:32;;;;;;;14.85;4.85;;;;;;;19.42;60.93;101209.53;7393951;19;20022;-70
2023/08/29 11:02:31;;;;;;;11.05;3.88;;;;;;;19.43;61.39;101207.69;7390121;19;20011;-69
2023/08/29 11:05:02;;;;;;;13.10;3.72;;;;;;;19.44;61.58;101206.66;7393412;19;20031;-70
2023/08/29 11:07:31;;;;;;;11.90;3.50;;;;;;;19.52;61.17;101211.25;7392381;19;20488;-70
2023/08/29 11:10:13;;;;;;;13.00;3.28;;;;;;;19.54;60.36;101196.66;7393758;19;20047;-71
2023/08/29 11:13:06;;;;;;;9.40;2.70;;;;;;;19.54;61.00;101195.81;7393773;19;20014;-71
2023/08/29 11:15:49;;;;;;;10.02;3.15;;;;;;;19.61;60.72;101196.81;7392252;19;20018;-71
2023/08/29 11:18:22;;;;;;;7.35;3.35;;;;;;;19.65;60.69;101198.22;7393484;19;20014;-70
2023/08/29 11:20:51;;;;;;;11.05;3.40;;;;;;;19.64;60.25;101192.00;7392541;19;20015;-71
2023/08/29 11:23:21;;;;;;;9.77;3.00;;;;;;;19.67;60.50;101180.94;7392942;19;20492;-69
2023/08/29 11:25:50;;;;;;;8.00;2.80;;;;;;;19.65;59.87;101182.09;7391885;19;20039;-71
2023/08/29 11:28:20;;;;;;;10.75;3.00;;;;;;;19.72;60.33;101185.81;7391577;19;20025;-69
2023/08/29 11:30:48;;;;;;;10.98;3.08;;;;;;;19.78;60.23;101185.19;7392317;19;20368;-69